Terminal Aerodrome Forecast
Issued by NWS Blacksburg, VA

Home | Current Version | Previous Version | Text Only | Print | Product List | Glossary On
Versions: 1 2 3 4 5 6 7 8 9 10 11 12 13 14 15
000
FTUS41 KRNK 290520
TAFDAN
TAF
KDAN 290520Z 2906/3006 11003KT P6SM SCT250
      TEMPO 2909/2911 5SM BR SCT005
     FM291200 07004KT P6SM SCT150=

USA.gov is the U.S. government's official web portal to all federal, state and local government web resources and services.